createdAt,value
2019-05-20T00:01:27.425Z,14.80
2019-05-20T00:03:56.371Z,15.10
2019-05-20T00:06:25.265Z,15.03
2019-05-20T00:08:53.982Z,14.07
2019-05-20T00:11:22.844Z,13.63
2019-05-20T00:13:51.701Z,12.57
2019-05-20T00:16:20.627Z,11.00
2019-05-20T00:18:49.521Z,14.07
2019-05-20T00:21:18.398Z,14.40
2019-05-20T00:23:48.951Z,14.73
2019-05-20T00:26:17.911Z,15.87
2019-05-20T00:28:46.722Z,15.47
2019-05-20T00:31:15.826Z,15.17
2019-05-20T00:33:44.918Z,12.27
2019-05-20T00:36:13.780Z,11.47
2019-05-20T00:38:42.574Z,13.03
2019-05-20T00:41:11.361Z,12.77
2019-05-20T00:43:40.279Z,13.07
2019-05-20T00:46:10.699Z,14.23
2019-05-20T00:48:39.560Z,13.43
2019-05-20T00:51:08.382Z,13.23
2019-05-20T00:53:37.161Z,13.00
2019-05-20T00:56:06.180Z,14.97
2019-05-20T00:58:34.987Z,12.97
2019-05-20T01:01:03.832Z,14.13
2019-05-20T01:03:32.685Z,12.87
2019-05-20T01:06:01.626Z,13.53
2019-05-20T01:08:30.404Z,12.90
2019-05-20T01:10:59.527Z,14.23
2019-05-20T01:13:28.659Z,13.73
2019-05-20T01:15:57.515Z,13.63
2019-05-20T01:18:26.322Z,12.93
2019-05-20T01:20:56.600Z,13.27
2019-05-20T01:23:25.420Z,33.87
2019-05-20T01:25:54.517Z,23.00
2019-05-20T01:28:23.412Z,15.23
2019-05-20T01:30:52.244Z,15.57
2019-05-20T01:33:21.167Z,15.23
2019-05-20T01:35:50.062Z,13.47
2019-05-20T01:38:18.961Z,14.63
2019-05-20T01:40:47.869Z,14.03
2019-05-20T01:43:16.764Z,15.40
2019-05-20T01:45:45.639Z,15.23
2019-05-20T01:48:14.545Z,14.83
2019-05-20T01:50:44.234Z,17.10
2019-05-20T01:53:13.148Z,52.30
2019-05-20T01:55:42.025Z,48.33
2019-05-20T01:58:10.912Z,36.17
2019-05-20T02:00:39.827Z,28.00
2019-05-20T02:03:08.717Z,35.13
2019-05-20T02:05:37.689Z,22.57
2019-05-20T02:08:06.423Z,26.87
2019-05-20T02:10:35.332Z,26.03
2019-05-20T02:13:04.218Z,17.73
2019-05-20T02:15:47.096Z,19.43
2019-05-20T02:18:15.994Z,20.47
2019-05-20T02:20:44.762Z,17.57
2019-05-20T02:23:15.114Z,17.60
2019-05-20T02:25:49.416Z,20.57
2019-05-20T02:28:18.319Z,20.17
2019-05-20T02:30:47.114Z,19.37
2019-05-20T02:33:15.976Z,21.00
2019-05-20T02:35:45.082Z,20.73
2019-05-20T02:38:13.872Z,21.60
2019-05-20T02:40:42.658Z,20.00
2019-05-20T02:43:11.748Z,22.13
2019-05-20T02:45:43.577Z,18.93
2019-05-20T02:48:12.534Z,20.80
2019-05-20T02:50:41.294Z,22.97
2019-05-20T02:53:10.304Z,22.83
2019-05-20T02:55:39.415Z,21.47
2019-05-20T02:58:08.276Z,22.63
2019-05-20T03:00:37.063Z,22.07
2019-05-20T03:03:05.879Z,22.17
2019-05-20T03:05:34.658Z,22.67
2019-05-20T03:08:03.597Z,22.17
2019-05-20T03:10:32.351Z,20.27
2019-05-20T03:13:01.304Z,22.03
2019-05-20T03:15:30.235Z,21.43
2019-05-20T03:17:59.527Z,21.67
2019-05-20T03:20:28.385Z,20.83
2019-05-20T03:22:57.436Z,18.50
2019-05-20T03:25:26.521Z,19.57
2019-05-20T03:27:55.415Z,15.63
2019-05-20T03:30:24.171Z,17.10
2019-05-20T03:32:53.196Z,14.97
2019-05-20T03:35:22.189Z,14.77
2019-05-20T03:37:50.996Z,17.87
2019-05-20T03:40:20.074Z,16.63
2019-05-20T03:42:48.787Z,15.93
2019-05-20T03:45:19.296Z,14.97
2019-05-20T03:47:48.186Z,18.30
2019-05-20T03:50:17.050Z,18.17
2019-05-20T03:52:45.797Z,19.97
2019-05-20T03:55:14.543Z,21.50
2019-05-20T03:57:43.550Z,21.90
2019-05-20T04:00:12.823Z,24.17
2019-05-20T04:02:41.585Z,24.57
2019-05-20T04:05:10.373Z,25.63
2019-05-20T04:07:39.297Z,24.03
2019-05-20T04:10:08.277Z,24.77
2019-05-20T04:12:37.077Z,26.13
2019-05-20T04:15:06.884Z,25.77
2019-05-20T04:17:35.700Z,23.83
2019-05-20T04:20:06.549Z,24.27
2019-05-20T04:22:35.442Z,23.57
2019-05-20T04:25:05.986Z,24.47
2019-05-20T04:27:34.812Z,24.23
2019-05-20T04:30:04.337Z,23.57
2019-05-20T04:32:33.116Z,21.37
2019-05-20T04:35:20.552Z,22.27
2019-05-20T04:37:34.049Z,20.77
2019-05-20T04:40:03.011Z,21.33
2019-05-20T04:42:31.810Z,20.90
2019-05-20T04:45:03.096Z,20.93
2019-05-20T04:47:31.798Z,19.57
2019-05-20T04:50:00.693Z,20.83
2019-05-20T04:52:29.519Z,20.40
2019-05-20T04:54:58.230Z,20.63
2019-05-20T04:57:26.964Z,19.63
2019-05-20T04:59:55.705Z,20.00
2019-05-20T05:02:24.610Z,18.37
2019-05-20T05:04:53.422Z,18.20
2019-05-20T05:07:26.862Z,18.40
2019-05-20T05:09:55.647Z,18.87
2019-05-20T05:12:24.366Z,17.23
2019-05-20T05:14:53.209Z,16.57
2019-05-20T05:17:22.090Z,18.17
2019-05-20T05:19:51.200Z,18.53
2019-05-20T05:22:20.107Z,18.97
2019-05-20T05:24:48.853Z,17.80
2019-05-20T05:27:17.636Z,16.50
2019-05-20T05:29:47.009Z,17.07
2019-05-20T05:32:17.616Z,16.30
2019-05-20T05:34:46.343Z,17.40
2019-05-20T05:37:15.265Z,16.07
2019-05-20T05:39:44.055Z,15.67
2019-05-20T05:42:13.997Z,14.37
2019-05-20T05:44:42.792Z,12.90
2019-05-20T05:47:11.798Z,12.07
2019-05-20T05:49:40.538Z,11.53
2019-05-20T05:52:09.684Z,13.07
2019-05-20T05:54:38.849Z,11.67
2019-05-20T05:57:07.872Z,12.30
2019-05-20T05:59:36.667Z,12.90
2019-05-20T06:02:05.459Z,11.87
2019-05-20T06:04:34.322Z,11.40
2019-05-20T06:07:03.144Z,12.47
2019-05-20T06:09:32.000Z,11.70
2019-05-20T06:12:00.886Z,12.03
2019-05-20T06:14:29.603Z,12.80
2019-05-20T06:16:58.463Z,12.07
2019-05-20T06:19:27.199Z,11.90
2019-05-20T06:21:56.051Z,12.10
2019-05-20T06:24:24.966Z,11.70
2019-05-20T06:26:54.082Z,11.07
2019-05-20T06:29:22.856Z,11.77
2019-05-20T06:31:51.633Z,11.50
2019-05-20T06:34:20.504Z,11.33
2019-05-20T06:36:54.414Z,11.40
2019-05-20T06:39:23.151Z,11.80
2019-05-20T06:41:51.927Z,12.40
2019-05-20T06:44:20.753Z,11.60
2019-05-20T06:46:49.577Z,11.97
2019-05-20T06:49:18.307Z,10.60
2019-05-20T06:51:47.131Z,10.13
2019-05-20T06:54:15.933Z,9.77
2019-05-20T06:56:44.930Z,10.20
2019-05-20T06:59:13.742Z,9.90
2019-05-20T07:01:42.920Z,9.87
2019-05-20T07:04:12.045Z,10.13
2019-05-20T07:06:46.482Z,9.63
2019-05-20T07:09:11.577Z,9.47
2019-05-20T07:11:40.468Z,10.67
2019-05-20T07:14:09.223Z,10.20
2019-05-20T07:16:38.083Z,9.47
2019-05-20T07:19:06.834Z,9.00
2019-05-20T07:21:35.831Z,9.33
2019-05-20T07:24:04.899Z,9.37
2019-05-20T07:26:33.818Z,10.10
2019-05-20T07:29:02.710Z,8.70
2019-05-20T07:31:31.566Z,8.97
2019-05-20T07:34:00.363Z,8.77
2019-05-20T07:36:29.236Z,8.37
2019-05-20T07:38:58.533Z,8.50
2019-05-20T07:41:27.586Z,7.97
2019-05-20T07:43:56.580Z,8.90
2019-05-20T07:46:25.533Z,8.43
2019-05-20T07:48:54.343Z,8.57
2019-05-20T07:51:24.138Z,8.60
2019-05-20T07:53:53.467Z,8.63
2019-05-20T07:56:28.098Z,8.20
2019-05-20T07:58:59.875Z,8.97
2019-05-20T08:01:28.761Z,8.27
2019-05-20T08:03:57.629Z,9.23
2019-05-20T08:06:26.609Z,8.90
2019-05-20T08:08:55.394Z,8.93
2019-05-20T08:11:24.180Z,8.67
2019-05-20T08:13:52.990Z,8.33
2019-05-20T08:16:21.838Z,8.17
2019-05-20T08:18:50.649Z,8.00
2019-05-20T08:21:19.542Z,8.60
2019-05-20T08:23:50.282Z,8.50
2019-05-20T08:26:18.900Z,9.07
2019-05-20T08:28:47.667Z,8.63
2019-05-20T08:31:16.640Z,8.90
2019-05-20T08:33:45.560Z,8.93
2019-05-20T08:36:14.599Z,8.97
2019-05-20T08:38:43.582Z,9.67
2019-05-20T08:41:12.457Z,9.53
2019-05-20T08:43:41.553Z,10.53
2019-05-20T08:46:10.580Z,9.83
2019-05-20T08:48:39.546Z,10.13
2019-05-20T08:51:08.325Z,9.90
2019-05-20T08:53:37.189Z,9.67
2019-05-20T08:56:06.004Z,9.60
2019-05-20T08:58:34.730Z,10.27
2019-05-20T09:01:03.903Z,10.20
2019-05-20T09:03:32.855Z,9.90
2019-05-20T09:06:01.746Z,10.70
2019-05-20T09:08:30.786Z,10.20
2019-05-20T09:10:59.757Z,9.93
2019-05-20T09:13:30.344Z,9.80
2019-05-20T09:15:59.367Z,11.10
2019-05-20T09:18:28.261Z,11.30
2019-05-20T09:20:57.189Z,10.40
2019-05-20T09:23:26.458Z,10.53
2019-05-20T09:25:55.353Z,10.50
2019-05-20T09:28:24.300Z,9.63
2019-05-20T09:30:53.882Z,10.97
2019-05-20T09:33:22.877Z,10.60
2019-05-20T09:35:51.687Z,11.47
2019-05-20T09:38:21.451Z,11.20
2019-05-20T09:40:51.055Z,10.40
2019-05-20T09:43:20.181Z,10.97
2019-05-20T09:46:05.655Z,10.70
2019-05-20T09:48:19.483Z,10.67
2019-05-20T09:50:48.702Z,10.43
2019-05-20T09:53:17.947Z,11.90
2019-05-20T09:55:47.973Z,12.17
2019-05-20T09:58:17.030Z,11.53
2019-05-20T10:00:47.490Z,11.27
2019-05-20T10:03:16.641Z,11.53
2019-05-20T10:05:45.368Z,10.07
2019-05-20T10:08:14.431Z,12.40
2019-05-20T10:10:43.125Z,11.97
2019-05-20T10:13:11.999Z,11.93
2019-05-20T10:15:41.306Z,11.47
2019-05-20T10:18:10.197Z,11.80
2019-05-20T10:20:38.945Z,11.17
2019-05-20T10:23:07.810Z,10.10
2019-05-20T10:25:36.876Z,11.67
2019-05-20T10:28:05.925Z,11.90
2019-05-20T10:30:34.913Z,11.03
2019-05-20T10:33:09.890Z,11.33
2019-05-20T10:35:34.116Z,11.37
2019-05-20T10:38:03.046Z,11.77
2019-05-20T10:40:32.029Z,11.00
2019-05-20T10:43:01.065Z,11.57
2019-05-20T10:45:29.975Z,12.43
2019-05-20T10:47:58.809Z,11.73
2019-05-20T10:50:27.853Z,12.93
2019-05-20T10:52:56.702Z,11.93
2019-05-20T10:55:25.648Z,12.53
2019-05-20T10:57:54.577Z,11.63
2019-05-20T11:00:23.848Z,12.40
2019-05-20T11:02:54.431Z,12.53
2019-05-20T11:05:23.471Z,12.70
2019-05-20T11:07:52.530Z,11.70
2019-05-20T11:10:21.817Z,12.33
2019-05-20T11:12:50.704Z,12.77
2019-05-20T11:15:19.559Z,11.87
2019-05-20T11:17:48.520Z,12.13
2019-05-20T11:20:17.619Z,13.77
2019-05-20T11:22:47.276Z,13.17
2019-05-20T11:25:16.417Z,12.47
2019-05-20T11:27:46.859Z,12.77
2019-05-20T11:30:16.048Z,13.53
2019-05-20T11:32:45.129Z,14.20
2019-05-20T11:35:14.176Z,14.43
2019-05-20T11:37:43.138Z,13.80
2019-05-20T11:40:14.050Z,14.03
2019-05-20T11:42:43.236Z,14.53
2019-05-20T11:45:14.318Z,16.60
2019-05-20T11:47:45.252Z,15.10
2019-05-20T11:50:14.312Z,11.57
2019-05-20T11:52:43.250Z,13.20
2019-05-20T11:55:12.226Z,13.37
2019-05-20T11:57:41.117Z,11.47
2019-05-20T12:00:12.198Z,11.97
2019-05-20T12:02:40.949Z,12.37
2019-05-20T12:05:10.782Z,12.73
2019-05-20T12:07:39.570Z,12.07
2019-05-20T12:10:09.504Z,11.63
2019-05-20T12:12:38.478Z,10.73
2019-05-20T12:15:08.872Z,10.97
2019-05-20T12:17:38.676Z,10.97
2019-05-20T12:20:11.965Z,9.47
2019-05-20T12:22:41.424Z,9.00
2019-05-20T12:25:10.689Z,9.80
2019-05-20T12:27:40.026Z,8.70
2019-05-20T12:30:09.639Z,9.10
2019-05-20T12:32:38.504Z,9.13
2019-05-20T12:35:08.008Z,9.93
2019-05-20T12:37:37.027Z,9.37
2019-05-20T12:40:08.143Z,9.20
2019-05-20T12:42:37.460Z,10.37
2019-05-20T12:45:07.942Z,9.73
2019-05-20T12:47:36.675Z,10.07
2019-05-20T12:50:06.643Z,6.87
2019-05-20T12:52:35.402Z,7.53
2019-05-20T12:55:08.649Z,7.97
2019-05-20T12:57:36.050Z,8.70
2019-05-20T13:00:12.414Z,8.70
2019-05-20T13:02:43.350Z,7.27
2019-05-20T13:05:12.897Z,6.40
2019-05-20T13:07:41.721Z,9.57
2019-05-20T13:10:27.609Z,9.53
2019-05-20T13:12:42.002Z,6.47
2019-05-20T13:15:12.329Z,10.47
2019-05-20T13:17:44.621Z,11.07
2019-05-20T13:20:11.980Z,11.90
2019-05-20T13:22:41.047Z,11.67
2019-05-20T13:25:09.987Z,12.30
2019-05-20T13:27:38.824Z,10.83
2019-05-20T13:30:10.066Z,12.07
2019-05-20T13:32:39.067Z,8.60
2019-05-20T13:35:09.282Z,14.70
2019-05-20T13:37:38.144Z,12.97
2019-05-20T13:40:08.000Z,12.73
2019-05-20T13:42:37.672Z,12.70
2019-05-20T13:45:07.289Z,11.87
2019-05-20T13:47:36.309Z,15.40
2019-05-20T13:50:07.635Z,15.40
2019-05-20T13:56:56.660Z,11.37
2019-05-20T13:59:25.532Z,15.47
2019-05-20T14:01:54.588Z,13.07
2019-05-20T14:04:23.299Z,18.23
2019-05-20T14:06:52.604Z,17.90
2019-05-20T14:09:21.520Z,13.67
2019-05-20T14:11:50.412Z,15.50
2019-05-20T14:14:19.305Z,17.03
2019-05-20T14:16:48.185Z,12.60
2019-05-20T14:19:22.391Z,18.93
2019-05-20T14:21:49.056Z,18.77
2019-05-20T14:24:18.029Z,16.23
2019-05-20T14:26:47.040Z,15.37
2019-05-20T14:29:15.877Z,16.00
2019-05-20T14:31:44.823Z,17.87
2019-05-20T14:34:13.715Z,16.87
2019-05-20T14:36:42.885Z,20.00
2019-05-20T14:39:11.707Z,20.23
2019-05-20T14:41:40.601Z,19.87
2019-05-20T14:44:09.696Z,20.03
2019-05-20T14:46:38.794Z,23.47
2019-05-20T14:49:07.694Z,23.70
2019-05-20T14:51:39.843Z,23.00
2019-05-20T14:54:08.653Z,22.83
2019-05-20T14:56:37.637Z,23.47
2019-05-20T14:59:06.409Z,22.50
2019-05-20T15:01:35.300Z,22.07
2019-05-20T15:04:04.222Z,24.73
2019-05-20T15:06:35.317Z,24.10
2019-05-20T15:09:06.943Z,23.43
2019-05-20T15:11:38.477Z,21.07
2019-05-20T15:14:07.873Z,26.37
2019-05-20T15:16:42.902Z,28.50
2019-05-20T15:19:07.294Z,26.73
2019-05-20T15:21:36.391Z,26.67
2019-05-20T15:24:05.350Z,23.53
2019-05-20T15:26:34.375Z,30.87
2019-05-20T15:29:04.177Z,31.40
2019-05-20T15:31:33.804Z,31.53
2019-05-20T15:34:02.837Z,28.60
2019-05-20T15:36:31.788Z,30.13
2019-05-20T15:39:01.226Z,23.83
2019-05-20T15:41:30.483Z,21.97
2019-05-20T15:44:01.352Z,24.37
2019-05-20T15:46:30.119Z,27.13
2019-05-20T15:48:59.015Z,11.83
2019-05-20T15:51:28.110Z,15.40
2019-05-20T15:53:56.993Z,13.50
2019-05-20T15:56:25.893Z,14.10
2019-05-20T15:58:54.787Z,12.17
2019-05-20T16:01:23.649Z,11.60
2019-05-20T16:03:52.569Z,12.60
2019-05-20T16:06:21.441Z,9.47
2019-05-20T16:08:50.445Z,10.27
2019-05-20T16:11:19.314Z,10.30
2019-05-20T16:13:48.339Z,7.77
2019-05-20T16:16:17.641Z,5.80
2019-05-20T16:18:46.536Z,5.77
2019-05-20T16:21:15.271Z,7.43
2019-05-20T16:23:44.525Z,7.07
2019-05-20T16:26:13.417Z,8.73
2019-05-20T16:28:42.308Z,7.93
2019-05-20T16:31:11.042Z,8.50
2019-05-20T16:33:39.999Z,8.30
2019-05-20T16:36:09.194Z,7.77
2019-05-20T16:38:38.048Z,8.37
2019-05-20T16:41:07.214Z,7.60
2019-05-20T16:43:36.128Z,6.63
2019-05-20T16:46:05.876Z,7.43
2019-05-20T16:48:34.711Z,6.50
2019-05-20T16:51:03.466Z,6.93
2019-05-20T16:53:32.656Z,7.10
2019-05-20T16:56:01.588Z,6.87
2019-05-20T16:58:30.407Z,7.03
2019-05-20T17:00:59.333Z,7.53
2019-05-20T17:03:28.096Z,7.03
2019-05-20T17:05:57.120Z,7.70
2019-05-20T17:08:26.013Z,6.70
2019-05-20T17:10:54.928Z,7.57
2019-05-20T17:13:23.898Z,6.77
2019-05-20T17:15:53.103Z,6.67
2019-05-20T17:18:22.063Z,7.33
2019-05-20T17:20:51.071Z,7.13
2019-05-20T17:23:20.182Z,6.90
2019-05-20T17:25:50.781Z,7.07
2019-05-20T17:28:20.138Z,7.57
2019-05-20T17:30:49.328Z,7.17
2019-05-20T17:33:18.301Z,7.57
2019-05-20T17:35:47.412Z,9.10
2019-05-20T17:38:16.510Z,7.43
2019-05-20T17:40:47.038Z,8.33
2019-05-20T17:43:16.072Z,8.87
2019-05-20T17:45:44.997Z,6.43
2019-05-20T17:48:14.994Z,8.77
2019-05-20T17:50:44.240Z,9.47
2019-05-20T17:53:13.343Z,9.00
2019-05-20T17:55:42.642Z,9.07
2019-05-20T17:58:11.939Z,7.73
2019-05-20T18:00:41.256Z,9.10
2019-05-20T18:03:10.340Z,8.53
2019-05-20T18:05:39.748Z,8.63
2019-05-20T18:08:08.945Z,7.23
2019-05-20T18:10:38.452Z,8.00
2019-05-20T18:13:07.851Z,9.00
2019-05-20T18:15:36.846Z,8.63
2019-05-20T18:18:05.694Z,7.73
2019-05-20T18:20:34.923Z,7.87
2019-05-20T18:23:03.936Z,8.40
2019-05-20T18:25:33.031Z,8.13
2019-05-20T18:28:02.157Z,8.93
2019-05-20T18:30:31.223Z,8.43
2019-05-20T18:33:00.320Z,7.43
2019-05-20T18:35:30.009Z,7.93
2019-05-20T18:37:59.331Z,7.93
2019-05-20T18:40:28.428Z,7.90
2019-05-20T18:42:57.523Z,7.20
2019-05-20T18:45:26.800Z,8.47
2019-05-20T18:47:58.585Z,7.77
2019-05-20T18:50:27.786Z,7.77
2019-05-20T18:52:56.886Z,7.00
2019-05-20T18:55:26.079Z,7.70
2019-05-20T18:57:55.288Z,7.50
2019-05-20T19:00:24.947Z,6.93
2019-05-20T19:02:54.100Z,7.30
2019-05-20T19:05:22.905Z,6.93
2019-05-20T19:07:52.091Z,7.23
2019-05-20T19:10:21.161Z,6.27
2019-05-20T19:12:50.681Z,6.97
2019-05-20T19:15:19.813Z,5.43
2019-05-20T19:17:48.882Z,6.60
2019-05-20T19:20:18.176Z,7.17
2019-05-20T19:22:48.507Z,7.40
2019-05-20T19:25:17.625Z,6.83
2019-05-20T19:27:46.456Z,7.20
2019-05-20T19:30:15.834Z,7.40
2019-05-20T19:32:44.757Z,8.17
2019-05-20T19:35:13.589Z,7.03
2019-05-20T19:37:42.507Z,7.57
2019-05-20T19:40:11.870Z,7.37
2019-05-20T19:42:40.722Z,6.53
2019-05-20T19:45:09.852Z,6.53
2019-05-20T19:47:39.125Z,7.37
2019-05-20T19:50:09.399Z,5.23
2019-05-20T19:52:38.205Z,6.53
2019-05-20T19:55:09.015Z,8.20
2019-05-20T19:57:37.762Z,7.17
2019-05-20T20:00:08.639Z,6.93
2019-05-20T20:02:37.485Z,8.83
2019-05-20T20:05:08.273Z,9.20
2019-05-20T20:07:37.157Z,9.07
2019-05-20T20:10:09.127Z,9.20
2019-05-20T20:12:38.015Z,10.57
2019-05-20T20:15:07.598Z,10.30
2019-05-20T20:17:36.486Z,9.47
2019-05-20T20:20:06.823Z,9.30
2019-05-20T20:22:35.861Z,10.33
2019-05-20T20:25:06.292Z,9.90
2019-05-20T20:27:35.463Z,10.73
2019-05-20T20:30:08.042Z,9.40
2019-05-20T20:32:38.665Z,10.60
2019-05-20T20:35:08.286Z,10.77
2019-05-20T20:37:37.171Z,10.67
2019-05-20T20:40:06.226Z,9.77
2019-05-20T20:42:35.169Z,10.07
2019-05-20T20:45:04.675Z,8.80
2019-05-20T20:47:41.173Z,10.10
2019-05-20T20:50:05.152Z,9.70
2019-05-20T20:52:34.024Z,10.57
2019-05-20T20:55:03.071Z,8.70
2019-05-20T20:57:31.981Z,10.03
2019-05-20T21:00:01.126Z,8.47
2019-05-20T21:02:29.992Z,9.87
2019-05-20T21:04:59.063Z,8.70
2019-05-20T21:07:27.961Z,9.53
2019-05-20T21:09:56.862Z,9.73
2019-05-20T21:12:25.628Z,8.90
2019-05-20T21:14:54.651Z,8.93
2019-05-20T21:17:23.543Z,9.47
2019-05-20T21:19:52.253Z,9.60
2019-05-20T21:22:21.203Z,8.20
2019-05-20T21:24:50.015Z,9.07
2019-05-20T21:27:18.767Z,9.73
2019-05-20T21:29:47.793Z,7.87
2019-05-20T21:32:16.696Z,9.17
2019-05-20T21:34:45.504Z,9.50
2019-05-20T21:37:14.469Z,8.77
2019-05-20T21:39:43.198Z,9.50
2019-05-20T21:42:12.150Z,9.67
2019-05-20T21:44:41.048Z,9.07
2019-05-20T21:47:10.911Z,10.03
2019-05-20T21:49:39.855Z,9.57
2019-05-20T21:52:10.152Z,10.03
2019-05-20T21:54:39.063Z,10.20
2019-05-20T21:57:07.928Z,9.93
2019-05-20T21:59:37.984Z,9.63
2019-05-20T22:02:06.976Z,9.57
2019-05-20T22:04:36.077Z,8.33
2019-05-20T22:07:05.080Z,9.60
2019-05-20T22:09:34.959Z,9.67
2019-05-20T22:12:03.730Z,8.40
2019-05-20T22:14:32.607Z,8.90
2019-05-20T22:17:01.563Z,6.70
2019-05-20T22:19:30.451Z,9.07
2019-05-20T22:22:00.891Z,8.50
2019-05-20T22:24:29.748Z,8.80
2019-05-20T22:26:58.545Z,9.37
2019-05-20T22:29:27.430Z,9.90
2019-05-20T22:31:56.240Z,9.77
2019-05-20T22:34:25.127Z,9.27
2019-05-20T22:36:53.991Z,9.77
2019-05-20T22:39:23.009Z,9.40
2019-05-20T22:41:51.807Z,9.53
2019-05-20T22:44:20.659Z,9.73
2019-05-20T22:46:49.436Z,9.47
2019-05-20T22:49:18.254Z,10.43
2019-05-20T22:51:47.169Z,10.23
2019-05-20T22:54:16.502Z,10.50
2019-05-20T22:56:45.472Z,10.80
2019-05-20T22:59:14.464Z,10.10
2019-05-20T23:01:43.352Z,9.10
2019-05-20T23:04:12.315Z,9.73
2019-05-20T23:06:41.442Z,11.43
2019-05-20T23:09:10.999Z,9.30
2019-05-20T23:11:40.232Z,10.50
2019-05-20T23:14:09.358Z,11.40
2019-05-20T23:16:38.237Z,11.20
2019-05-20T23:19:07.064Z,11.23
2019-05-20T23:21:35.897Z,11.03
2019-05-20T23:24:04.708Z,11.80
2019-05-20T23:26:33.518Z,10.27
2019-05-20T23:29:02.498Z,10.70
2019-05-20T23:31:31.465Z,11.13
2019-05-20T23:34:12.354Z,10.47
2019-05-20T23:36:30.810Z,10.87
2019-05-20T23:38:59.699Z,10.00
2019-05-20T23:41:28.662Z,10.73
2019-05-20T23:43:57.689Z,10.83
2019-05-20T23:46:26.581Z,10.63
2019-05-20T23:48:55.477Z,9.90
2019-05-20T23:51:26.175Z,9.20
2019-05-20T23:53:55.286Z,10.37
2019-05-20T23:56:24.198Z,10.27
2019-05-20T23:58:53.086Z,10.10
